Terminal Aerodrome Forecast
Issued by NWS Caribou, ME

Home | Current Version | Previous Version | Text Only | Print | Product List | Glossary On
Versions: 1 2 3 4 5 6 7 8 9 10 11 12 13 14 15
585
FTUS41 KCAR 250538
TAFCAR
TAF
KCAR 250538Z 2506/2606 03007KT 6SM -FZRAPL SCT010 OVC020
     FM250800 07005KT 3SM -FZDZ OVC008
     FM251600 12006KT 3SM -DZ BR OVC009
     FM252100 15010KT 2SM -DZ OVC003 WS020/17040KT
     FM252300 15010KT 1SM -RA OVC002 WS020/17040KT=

USA.gov is the U.S. government's official web portal to all federal, state and local government web resources and services.